createdAt,value
2023-02-08T00:01:10.488Z,3.20
2023-02-08T00:03:37.983Z,3.20
2023-02-08T00:06:06.524Z,3.30
2023-02-08T00:08:34.225Z,3.30
2023-02-08T00:11:05.972Z,3.30
2023-02-08T00:13:34.404Z,3.20
2023-02-08T00:16:03.270Z,3.30
2023-02-08T00:18:30.448Z,3.30
2023-02-08T00:20:57.468Z,3.30
2023-02-08T00:23:25.664Z,3.30
2023-02-08T00:25:53.012Z,3.30
2023-02-08T00:31:01.067Z,3.30
2023-02-08T00:33:30.422Z,3.30
2023-02-08T00:36:04.408Z,3.30
2023-02-08T00:38:31.691Z,3.30
2023-02-08T00:40:58.608Z,3.30
2023-02-08T00:43:25.791Z,3.30
2023-02-08T00:45:59.869Z,3.20
2023-02-08T00:48:28.092Z,3.10
2023-02-08T00:51:08.275Z,3.10
2023-02-08T00:53:39.801Z,3.00
2023-02-08T00:56:08.957Z,3.00
2023-02-08T00:58:35.861Z,2.90
2023-02-08T01:01:04.332Z,2.90
2023-02-08T01:03:34.096Z,2.90
2023-02-08T01:06:06.500Z,2.90
2023-02-08T01:08:35.971Z,2.90
2023-02-08T01:11:08.756Z,2.90
2023-02-08T01:13:36.669Z,2.90
2023-02-08T01:16:14.804Z,2.90
2023-02-08T01:18:43.063Z,2.80
2023-02-08T01:21:13.317Z,2.80
2023-02-08T01:23:40.698Z,2.80
2023-02-08T01:26:11.762Z,2.70
2023-02-08T01:28:42.266Z,2.70
2023-02-08T01:31:12.491Z,2.60
2023-02-08T01:33:40.035Z,2.60
2023-02-08T01:36:07.685Z,2.60
2023-02-08T01:38:36.060Z,2.60
2023-02-08T01:41:04.219Z,2.60
2023-02-08T01:43:55.743Z,2.60
2023-02-08T01:46:23.055Z,2.60
2023-02-08T01:48:50.397Z,2.60
2023-02-08T01:51:24.006Z,2.60
2023-02-08T01:53:55.362Z,2.60
2023-02-08T01:56:28.336Z,2.60
2023-02-08T01:59:03.299Z,2.50
2023-02-08T02:01:32.057Z,2.60
2023-02-08T02:04:04.341Z,2.60
2023-02-08T02:06:37.173Z,2.60
2023-02-08T02:09:09.821Z,2.60
2023-02-08T02:11:37.145Z,2.70
2023-02-08T02:14:06.384Z,2.70
2023-02-08T02:16:36.410Z,2.70
2023-02-08T02:19:13.905Z,2.70
2023-02-08T02:21:56.956Z,2.70
2023-02-08T02:24:26.857Z,2.60
2023-02-08T02:26:56.782Z,2.60
2023-02-08T02:29:29.553Z,2.60
2023-02-08T02:32:16.273Z,2.60
2023-02-08T02:35:07.822Z,2.50
2023-02-08T02:37:40.889Z,2.40
2023-02-08T02:40:32.026Z,2.40
2023-02-08T02:43:29.846Z,2.40
2023-02-08T02:46:02.915Z,2.30
2023-02-08T02:48:47.191Z,2.30
2023-02-08T02:51:31.746Z,2.20
2023-02-08T02:54:08.964Z,2.20
2023-02-08T02:56:43.950Z,2.10
2023-02-08T02:59:15.832Z,2.10
2023-02-08T03:01:46.346Z,2.00
2023-02-08T03:04:33.480Z,2.00
2023-02-08T03:07:06.613Z,2.00
2023-02-08T03:10:02.856Z,2.00
2023-02-08T03:12:47.912Z,2.00
2023-02-08T03:15:25.649Z,2.00
2023-02-08T03:18:10.383Z,1.90
2023-02-08T03:20:55.547Z,1.90
2023-02-08T03:23:25.936Z,1.90
2023-02-08T03:26:19.125Z,1.80
2023-02-08T03:29:11.962Z,1.80
2023-02-08T03:31:48.860Z,1.80
2023-02-08T03:34:54.389Z,1.70
2023-02-08T03:37:39.123Z,1.70
2023-02-08T03:40:27.443Z,1.70
2023-02-08T03:42:59.413Z,1.60
2023-02-08T03:45:35.080Z,1.60
2023-02-08T03:48:13.796Z,1.60
2023-02-08T03:50:41.929Z,1.60
2023-02-08T03:53:10.832Z,1.50
2023-02-08T03:55:39.351Z,1.40
2023-02-08T03:58:26.565Z,1.40
2023-02-08T04:00:59.372Z,1.30
2023-02-08T04:03:31.589Z,1.30
2023-02-08T04:05:58.606Z,1.30
2023-02-08T04:08:26.407Z,1.30
2023-02-08T04:10:53.360Z,1.30
2023-02-08T04:13:20.270Z,1.30
2023-02-08T04:15:47.298Z,1.20
2023-02-08T04:18:16.838Z,1.20
2023-02-08T04:20:43.774Z,1.20
2023-02-08T04:23:13.314Z,1.20
2023-02-08T04:25:40.254Z,1.20
2023-02-08T04:28:07.232Z,1.20
2023-02-08T04:30:34.202Z,1.20
2023-02-08T04:33:01.260Z,1.20
2023-02-08T04:35:28.144Z,1.20
2023-02-08T04:37:55.033Z,1.20
2023-02-08T04:40:21.928Z,1.20
2023-02-08T04:42:48.899Z,1.20
2023-02-08T04:45:15.863Z,1.30
2023-02-08T04:47:42.781Z,1.30
2023-02-08T04:50:09.820Z,1.20
2023-02-08T04:52:39.678Z,1.30
2023-02-08T04:55:09.010Z,1.20
2023-02-08T04:57:35.898Z,1.20
2023-02-08T05:00:05.325Z,1.20
2023-02-08T05:02:32.390Z,1.20
2023-02-08T05:04:59.251Z,1.20
2023-02-08T05:07:26.174Z,1.20
2023-02-08T05:09:55.603Z,1.20
2023-02-08T05:12:22.522Z,1.20
2023-02-08T05:14:49.403Z,1.20
2023-02-08T05:17:16.377Z,1.20
2023-02-08T05:19:43.302Z,1.20
2023-02-08T05:22:10.214Z,1.20
2023-02-08T05:24:37.322Z,1.20
2023-02-08T05:27:04.470Z,1.20
2023-02-08T05:29:31.425Z,1.30
2023-02-08T05:31:58.380Z,1.30
2023-02-08T05:34:25.601Z,1.30
2023-02-08T05:36:53.552Z,1.30
2023-02-08T05:39:20.529Z,1.30
2023-02-08T05:41:48.430Z,1.30
2023-02-08T05:44:18.008Z,1.30
2023-02-08T05:46:44.988Z,1.30
2023-02-08T05:49:11.985Z,1.30
2023-02-08T05:51:39.040Z,1.30
2023-02-08T05:54:06.281Z,1.30
2023-02-08T05:56:33.297Z,1.20
2023-02-08T05:59:03.882Z,1.20
2023-02-08T06:01:31.892Z,1.20
2023-02-08T06:04:00.310Z,1.20
2023-02-08T06:06:27.456Z,1.20
2023-02-08T06:08:55.024Z,1.20
2023-02-08T06:11:22.227Z,1.20
2023-02-08T06:13:49.208Z,1.20
2023-02-08T06:16:19.583Z,1.10
2023-02-08T06:18:46.992Z,1.10
2023-02-08T06:21:13.867Z,1.00
2023-02-08T06:23:41.316Z,1.00
2023-02-08T06:26:08.554Z,1.00
2023-02-08T06:28:37.569Z,0.90
2023-02-08T06:31:04.655Z,0.90
2023-02-08T06:33:31.539Z,0.80
2023-02-08T06:36:00.464Z,0.80
2023-02-08T06:38:27.489Z,0.80
2023-02-08T06:40:58.188Z,0.80
2023-02-08T06:43:25.730Z,0.70
2023-02-08T06:45:52.704Z,0.70
2023-02-08T06:48:20.040Z,0.60
2023-02-08T06:50:49.587Z,0.50
2023-02-08T06:53:16.504Z,0.40
2023-02-08T06:55:48.276Z,0.30
2023-02-08T06:58:15.229Z,0.30
2023-02-08T07:00:42.476Z,0.20
2023-02-08T07:03:09.818Z,0.20
2023-02-08T07:05:38.582Z,0.20
2023-02-08T07:08:06.973Z,0.20
2023-02-08T07:10:34.222Z,0.20
2023-02-08T07:13:02.930Z,0.20
2023-02-08T07:15:31.079Z,0.20
2023-02-08T07:17:58.158Z,0.20
2023-02-08T07:20:27.366Z,0.20
2023-02-08T07:22:55.585Z,0.20
2023-02-08T07:25:23.727Z,0.20
2023-02-08T07:27:51.071Z,0.20
2023-02-08T07:30:18.146Z,0.30
2023-02-08T07:32:47.998Z,0.60
2023-02-08T07:35:17.856Z,1.30
2023-02-08T07:37:44.828Z,2.30
2023-02-08T07:40:12.022Z,3.20
2023-02-08T07:42:38.916Z,4.10
2023-02-08T07:45:08.333Z,5.00
2023-02-08T07:47:35.222Z,5.80
2023-02-08T07:50:02.100Z,6.50
2023-02-08T07:52:30.083Z,7.20
2023-02-08T07:54:56.976Z,7.90
2023-02-08T07:57:25.130Z,8.70
2023-02-08T07:59:54.042Z,9.30
2023-02-08T08:02:21.177Z,10.20
2023-02-08T08:04:50.533Z,10.90
2023-02-08T08:07:17.469Z,11.50
2023-02-08T08:09:44.373Z,12.20
2023-02-08T08:12:13.853Z,12.60
2023-02-08T08:14:40.789Z,13.20
2023-02-08T08:17:11.980Z,13.60
2023-02-08T08:19:38.973Z,14.00
2023-02-08T08:22:05.957Z,14.50
2023-02-08T08:24:35.665Z,15.10
2023-02-08T08:27:09.183Z,15.80
2023-02-08T08:29:37.701Z,16.40
2023-02-08T08:32:04.781Z,16.90
2023-02-08T08:34:32.256Z,17.20
2023-02-08T08:37:04.613Z,17.60
2023-02-08T08:39:32.248Z,17.80
2023-02-08T08:42:00.651Z,18.20
2023-02-08T08:44:27.599Z,18.40
2023-02-08T08:46:58.763Z,18.80
2023-02-08T08:49:28.939Z,19.00
2023-02-08T08:51:56.413Z,19.30
2023-02-08T08:54:23.527Z,19.80
2023-02-08T08:56:50.500Z,20.10
2023-02-08T08:59:17.458Z,20.60
2023-02-08T09:01:44.398Z,21.00
2023-02-08T09:04:11.669Z,21.50
2023-02-08T09:06:40.625Z,21.80
2023-02-08T09:09:08.926Z,22.00
2023-02-08T09:11:35.931Z,22.30
2023-02-08T09:14:04.754Z,22.50
2023-02-08T09:16:33.047Z,22.30
2023-02-08T09:19:10.533Z,22.40
2023-02-08T09:21:37.813Z,22.10
2023-02-08T09:24:07.318Z,22.10
2023-02-08T09:26:34.284Z,22.10
2023-02-08T09:29:03.673Z,22.00
2023-02-08T09:31:32.954Z,22.00
2023-02-08T09:34:01.272Z,22.10
2023-02-08T09:36:34.789Z,22.20
2023-02-08T09:39:08.012Z,22.50
2023-02-08T09:41:42.678Z,22.70
2023-02-08T09:44:55.219Z,22.90
2023-02-08T09:47:34.653Z,23.00
2023-02-08T09:50:18.811Z,22.80
2023-02-08T09:52:54.605Z,22.60
2023-02-08T09:55:30.490Z,22.70
2023-02-08T09:57:59.524Z,22.80
2023-02-08T10:00:39.108Z,22.90
2023-02-08T10:03:07.110Z,23.00
2023-02-08T10:05:35.773Z,23.00
2023-02-08T10:08:02.815Z,22.50
2023-02-08T10:10:43.920Z,22.60
2023-02-08T10:13:41.456Z,23.00
2023-02-08T10:16:17.667Z,23.10
2023-02-08T10:19:11.790Z,23.30
2023-02-08T10:21:59.222Z,23.30
2023-02-08T10:25:07.639Z,23.40
2023-02-08T10:27:54.261Z,23.20
2023-02-08T10:30:51.670Z,23.40
2023-02-08T10:33:26.753Z,23.40
2023-02-08T10:35:55.031Z,23.60
2023-02-08T10:38:21.881Z,23.60
2023-02-08T10:40:52.638Z,23.70
2023-02-08T10:43:22.327Z,23.70
2023-02-08T10:46:04.278Z,23.50
2023-02-08T10:49:00.092Z,23.50
2023-02-08T10:51:27.632Z,23.70
2023-02-08T10:53:57.242Z,23.90
2023-02-08T10:56:36.636Z,23.90
2023-02-08T10:59:15.004Z,23.40
2023-02-08T11:01:42.429Z,23.30
2023-02-08T11:04:15.398Z,23.30
2023-02-08T11:06:44.561Z,23.40
2023-02-08T11:09:29.392Z,23.10
2023-02-08T11:12:00.410Z,22.50
2023-02-08T11:14:47.037Z,22.30
2023-02-08T11:17:33.031Z,22.20
2023-02-08T11:20:02.902Z,22.40
2023-02-08T11:22:31.444Z,22.40
2023-02-08T11:25:01.322Z,22.10
2023-02-08T11:27:45.107Z,21.90
2023-02-08T11:30:15.822Z,21.90
2023-02-08T11:32:47.438Z,22.00
2023-02-08T11:35:26.051Z,21.60
2023-02-08T11:37:58.727Z,21.40
2023-02-08T11:40:47.018Z,21.10
2023-02-08T11:43:42.476Z,20.70
2023-02-08T11:46:11.230Z,20.40
2023-02-08T11:48:50.124Z,20.30
2023-02-08T11:51:36.324Z,19.90
2023-02-08T11:54:05.669Z,19.70
2023-02-08T11:56:34.746Z,19.30
2023-02-08T11:59:22.870Z,18.70
2023-02-08T12:01:49.770Z,18.20
2023-02-08T12:04:18.108Z,17.70
2023-02-08T12:06:57.024Z,17.10
2023-02-08T12:09:50.394Z,16.70
2023-02-08T12:12:38.929Z,16.20
2023-02-08T12:15:11.885Z,15.80
2023-02-08T12:17:47.695Z,15.80
2023-02-08T12:20:34.071Z,15.50
2023-02-08T12:23:07.049Z,15.10
2023-02-08T12:25:55.101Z,14.90
2023-02-08T12:29:10.874Z,14.70
2023-02-08T12:31:52.497Z,14.40
2023-02-08T12:34:50.532Z,14.30
2023-02-08T12:37:54.673Z,14.40
2023-02-08T12:40:45.314Z,14.30
2023-02-08T12:43:26.129Z,14.20
2023-02-08T12:46:44.245Z,14.00
2023-02-08T12:49:41.965Z,13.70
2023-02-08T12:52:33.381Z,13.60
2023-02-08T12:55:19.610Z,13.70
2023-02-08T12:57:59.580Z,13.80
2023-02-08T13:00:32.072Z,13.70
2023-02-08T13:03:23.701Z,13.40
2023-02-08T13:06:02.153Z,13.20
2023-02-08T13:08:47.007Z,12.90
2023-02-08T13:11:48.974Z,12.70
2023-02-08T13:14:24.952Z,12.50
2023-02-08T13:16:55.882Z,12.30
2023-02-08T13:19:31.960Z,12.10
2023-02-08T13:21:59.886Z,11.90
2023-02-08T13:24:33.434Z,12.00
2023-02-08T13:27:00.725Z,12.00
2023-02-08T13:29:29.615Z,12.10
2023-02-08T13:32:09.045Z,12.20
2023-02-08T13:34:53.391Z,12.40
2023-02-08T13:37:26.736Z,12.50
2023-02-08T13:40:28.327Z,12.50
2023-02-08T13:43:12.272Z,12.60
2023-02-08T13:45:44.160Z,12.70
2023-02-08T13:48:16.779Z,12.70
2023-02-08T13:50:51.236Z,12.50
2023-02-08T13:53:39.033Z,12.30
2023-02-08T13:56:10.211Z,12.10
2023-02-08T13:58:37.587Z,12.00
2023-02-08T14:01:18.423Z,11.80
2023-02-08T14:04:08.123Z,11.70
2023-02-08T14:06:43.451Z,11.70
2023-02-08T14:09:13.456Z,11.60
2023-02-08T14:11:54.381Z,11.70
2023-02-08T14:14:29.952Z,11.60
2023-02-08T14:17:32.841Z,11.70
2023-02-08T14:20:06.166Z,11.60
2023-02-08T14:22:48.301Z,11.60
2023-02-08T14:25:22.482Z,11.60
2023-02-08T14:27:55.431Z,11.60
2023-02-08T14:30:27.574Z,11.60
2023-02-08T14:33:19.359Z,11.60
2023-02-08T14:35:59.622Z,11.50
2023-02-08T14:38:52.917Z,11.50
2023-02-08T14:41:46.213Z,11.50
2023-02-08T14:44:38.054Z,11.40
2023-02-08T14:47:11.409Z,11.30
2023-02-08T14:49:42.110Z,11.20
2023-02-08T14:52:22.190Z,11.30
2023-02-08T14:55:17.850Z,11.10
2023-02-08T14:57:45.139Z,10.90
2023-02-08T15:00:23.390Z,10.80
2023-02-08T15:02:50.590Z,10.60
2023-02-08T15:05:26.468Z,10.60
2023-02-08T15:07:58.881Z,10.60
2023-02-08T15:10:28.657Z,10.50
2023-02-08T15:13:03.752Z,10.50
2023-02-08T15:15:37.268Z,10.50
2023-02-08T15:18:07.065Z,10.50
2023-02-08T15:20:35.643Z,10.40
2023-02-08T15:23:05.595Z,10.50
2023-02-08T15:25:34.901Z,10.60
2023-02-08T15:28:19.754Z,10.70
2023-02-08T15:30:54.655Z,10.80
2023-02-08T15:33:21.885Z,10.80
2023-02-08T15:36:07.704Z,10.90
2023-02-08T15:38:38.728Z,10.80
2023-02-08T15:41:10.526Z,10.80
2023-02-08T15:43:39.409Z,10.70
2023-02-08T15:46:18.176Z,10.60
2023-02-08T15:48:47.702Z,10.60
2023-02-08T15:51:16.206Z,10.50
2023-02-08T15:53:48.801Z,10.50
2023-02-08T15:56:36.557Z,10.50
2023-02-08T15:59:07.912Z,10.50
2023-02-08T16:01:35.158Z,10.40
2023-02-08T16:04:12.628Z,10.40
2023-02-08T16:06:46.525Z,10.40
2023-02-08T16:09:19.181Z,10.30
2023-02-08T16:11:49.970Z,10.20
2023-02-08T16:14:19.612Z,10.20
2023-02-08T16:16:55.497Z,10.10
2023-02-08T16:19:33.724Z,10.00
2023-02-08T16:22:12.695Z,9.90
2023-02-08T16:24:39.664Z,9.90
2023-02-08T16:27:18.516Z,9.80
2023-02-08T16:29:48.034Z,9.70
2023-02-08T16:32:38.938Z,9.60
2023-02-08T16:35:20.405Z,9.50
2023-02-08T16:37:54.666Z,9.40
2023-02-08T16:40:40.417Z,9.30
2023-02-08T16:43:27.210Z,9.20
2023-02-08T16:46:15.464Z,9.10
2023-02-08T16:48:45.030Z,8.90
2023-02-08T16:51:43.328Z,8.80
2023-02-08T16:54:13.795Z,8.60
2023-02-08T16:56:41.909Z,8.60
2023-02-08T16:59:10.870Z,8.50
2023-02-08T17:01:38.442Z,8.40
2023-02-08T17:04:05.838Z,8.30
2023-02-08T17:06:35.352Z,8.20
2023-02-08T17:09:04.949Z,8.10
2023-02-08T17:11:32.547Z,8.00
2023-02-08T17:13:59.696Z,7.90
2023-02-08T17:16:30.358Z,7.80
2023-02-08T17:18:58.255Z,7.70
2023-02-08T17:21:25.629Z,7.60
2023-02-08T17:23:52.507Z,7.50
2023-02-08T17:26:34.561Z,7.50
2023-02-08T17:29:01.454Z,7.40
2023-02-08T17:31:31.660Z,7.30
2023-02-08T17:34:04.370Z,7.20
2023-02-08T17:36:36.754Z,7.10
2023-02-08T17:39:05.572Z,7.10
2023-02-08T17:41:32.507Z,7.00
2023-02-08T17:43:59.413Z,7.00
2023-02-08T17:46:28.249Z,6.90
2023-02-08T17:48:55.197Z,6.90
2023-02-08T17:51:24.680Z,6.90
2023-02-08T17:53:52.237Z,6.90
2023-02-08T17:56:22.286Z,6.90
2023-02-08T17:58:53.671Z,6.90
2023-02-08T18:01:24.400Z,6.90
2023-02-08T18:03:52.592Z,6.80
2023-02-08T18:06:20.733Z,6.80
2023-02-08T18:08:47.739Z,6.80
2023-02-08T18:11:18.104Z,6.70
2023-02-08T18:13:46.336Z,6.70
2023-02-08T18:16:19.853Z,6.60
2023-02-08T18:18:47.819Z,6.40
2023-02-08T18:21:20.406Z,6.40
2023-02-08T18:23:48.957Z,6.30
2023-02-08T18:26:21.885Z,6.20
2023-02-08T18:28:49.101Z,6.20
2023-02-08T18:31:20.272Z,6.20
2023-02-08T18:33:48.981Z,6.20
2023-02-08T18:36:16.787Z,6.10
2023-02-08T18:38:45.923Z,6.10
2023-02-08T18:41:19.068Z,6.10
2023-02-08T18:43:46.349Z,6.10
2023-02-08T18:46:16.021Z,6.00
2023-02-08T18:48:43.909Z,6.00
2023-02-08T18:51:12.233Z,5.90
2023-02-08T18:53:41.596Z,5.80
2023-02-08T18:56:10.944Z,5.80
2023-02-08T18:58:38.091Z,5.70
2023-02-08T19:01:12.110Z,5.70
2023-02-08T19:03:39.849Z,5.60
2023-02-08T19:06:09.873Z,5.60
2023-02-08T19:08:38.008Z,5.50
2023-02-08T19:11:05.984Z,5.50
2023-02-08T19:13:34.493Z,5.40
2023-02-08T19:16:01.468Z,5.30
2023-02-08T19:18:28.359Z,5.30
2023-02-08T19:20:55.273Z,5.30
2023-02-08T19:23:22.209Z,5.30
2023-02-08T19:25:49.156Z,5.30
2023-02-08T19:28:16.053Z,5.30
2023-02-08T19:30:42.994Z,5.30
2023-02-08T19:33:09.870Z,5.20
2023-02-08T19:35:38.413Z,5.10
2023-02-08T19:38:05.828Z,5.00
2023-02-08T19:40:32.819Z,5.00
2023-02-08T19:42:59.767Z,4.90
2023-02-08T19:45:26.728Z,4.90
2023-02-08T19:47:55.055Z,4.90
2023-02-08T19:50:22.082Z,4.90
2023-02-08T19:52:49.144Z,4.90
2023-02-08T19:55:16.149Z,4.90
2023-02-08T19:57:43.062Z,4.90
2023-02-08T20:00:22.535Z,4.80
2023-02-08T20:02:50.523Z,4.90
2023-02-08T20:05:17.493Z,4.90
2023-02-08T20:07:44.441Z,4.90
2023-02-08T20:10:11.383Z,4.90
2023-02-08T20:12:38.303Z,4.90
2023-02-08T20:15:06.466Z,4.90
2023-02-08T20:17:33.376Z,4.90
2023-02-08T20:20:00.319Z,4.90
2023-02-08T20:22:27.224Z,4.90
2023-02-08T20:24:54.149Z,4.80
2023-02-08T20:27:21.065Z,4.80
2023-02-08T20:29:47.971Z,4.80
2023-02-08T20:32:15.221Z,4.80
2023-02-08T20:34:53.913Z,4.80
2023-02-08T20:37:25.799Z,4.80
2023-02-08T20:39:52.745Z,4.80
2023-02-08T20:42:19.664Z,4.80
2023-02-08T20:44:46.581Z,4.80
2023-02-08T20:47:16.465Z,4.80
2023-02-08T20:49:44.353Z,4.80
2023-02-08T20:52:11.781Z,4.90
2023-02-08T20:54:39.284Z,4.80
2023-02-08T20:57:06.228Z,4.80
2023-02-08T20:59:33.583Z,4.80
2023-02-08T21:02:00.610Z,4.80
2023-02-08T21:04:27.970Z,4.80
2023-02-08T21:06:55.846Z,4.80
2023-02-08T21:09:23.149Z,4.70
2023-02-08T21:11:51.231Z,4.80
2023-02-08T21:14:21.287Z,4.70
2023-02-08T21:16:51.142Z,4.70
2023-02-08T21:19:20.712Z,4.70
2023-02-08T21:21:53.020Z,4.70
2023-02-08T21:24:21.354Z,4.70
2023-02-08T21:26:49.472Z,4.70
2023-02-08T21:29:16.472Z,4.70
2023-02-08T21:31:43.591Z,4.70
2023-02-08T21:34:11.566Z,4.70
2023-02-08T21:36:38.501Z,4.70
2023-02-08T21:39:05.596Z,4.70
2023-02-08T21:41:33.868Z,4.70
2023-02-08T21:44:03.869Z,4.70
2023-02-08T21:46:32.107Z,4.60
2023-02-08T21:49:17.439Z,4.60
2023-02-08T21:52:03.625Z,4.60
2023-02-08T21:54:42.563Z,4.50
2023-02-08T21:57:16.026Z,4.50
2023-02-08T21:59:43.346Z,4.50
2023-02-08T22:02:15.178Z,4.40
2023-02-08T22:04:46.834Z,4.40
2023-02-08T22:07:14.469Z,4.40
2023-02-08T22:09:42.112Z,4.40
2023-02-08T22:12:15.264Z,4.30
2023-02-08T22:14:42.656Z,4.30
2023-02-08T22:17:10.402Z,4.30
2023-02-08T22:19:39.120Z,4.30
2023-02-08T22:22:06.223Z,4.30
2023-02-08T22:24:34.331Z,4.30
2023-02-08T22:27:02.280Z,4.30
2023-02-08T22:29:29.354Z,4.30
2023-02-08T22:31:56.380Z,4.30
2023-02-08T22:34:24.152Z,4.30
2023-02-08T22:36:51.029Z,4.30
2023-02-08T22:39:17.881Z,4.30
2023-02-08T22:41:44.882Z,4.40
2023-02-08T22:44:11.841Z,4.40
2023-02-08T22:46:38.797Z,4.40
2023-02-08T22:49:05.716Z,4.40
2023-02-08T22:51:32.595Z,4.30
2023-02-08T22:53:59.494Z,4.30
2023-02-08T22:56:26.456Z,4.30
2023-02-08T22:58:53.361Z,4.30
2023-02-08T23:01:20.432Z,4.20
2023-02-08T23:03:47.377Z,4.20
2023-02-08T23:06:16.286Z,4.20
2023-02-08T23:08:44.466Z,4.10
2023-02-08T23:11:13.378Z,4.10
2023-02-08T23:13:40.306Z,4.10
2023-02-08T23:16:07.723Z,4.00
2023-02-08T23:18:36.013Z,4.00
2023-02-08T23:21:11.605Z,4.00
2023-02-08T23:23:39.548Z,3.90
2023-02-08T23:26:08.402Z,4.00
2023-02-08T23:28:35.818Z,3.90
2023-02-08T23:31:10.387Z,3.90
2023-02-08T23:33:38.339Z,3.90
2023-02-08T23:36:14.960Z,3.90
2023-02-08T23:38:43.221Z,3.80
2023-02-08T23:41:15.863Z,3.80
2023-02-08T23:43:43.468Z,3.80
2023-02-08T23:46:16.353Z,3.80
2023-02-08T23:48:44.048Z,3.80
2023-02-08T23:51:10.975Z,3.70
2023-02-08T23:53:38.283Z,3.70
2023-02-08T23:56:21.321Z,3.60
2023-02-08T23:58:50.364Z,3.60
